createdAt,value
2023-05-25T00:03:03.907Z,77094.31
2023-05-25T00:10:39.370Z,77098.41
2023-05-25T00:18:14.152Z,77096.38
2023-05-25T00:25:49.808Z,77094.31
2023-05-25T00:33:23.868Z,77094.31
2023-05-25T00:40:59.818Z,77100.44
2023-05-25T00:56:31.668Z,77106.56
2023-05-25T01:04:07.442Z,77106.56
2023-05-25T01:11:45.446Z,77114.75
2023-05-25T01:19:19.500Z,77118.81
2023-05-25T01:26:58.073Z,77122.91
2023-05-25T01:34:32.715Z,77118.81
2023-05-25T01:42:08.516Z,77139.25
2023-05-25T01:49:47.609Z,77149.44
2023-05-25T01:57:23.937Z,77147.41
2023-05-25T02:04:58.432Z,77155.56
2023-05-25T02:12:33.764Z,77171.91
2023-05-25T02:20:09.774Z,77194.34
2023-05-25T02:27:45.250Z,77206.63
2023-05-25T02:35:19.107Z,77210.69
2023-05-25T02:42:54.340Z,77208.66
2023-05-25T02:50:28.123Z,77210.69
2023-05-25T02:58:03.388Z,77222.94
2023-05-25T03:05:38.552Z,77237.25
2023-05-25T03:13:13.883Z,77245.41
2023-05-25T03:20:47.805Z,77253.56
2023-05-25T03:28:23.106Z,77278.06
2023-05-25T03:35:56.903Z,77284.19
2023-05-25T03:43:32.261Z,77290.31
2023-05-25T03:51:06.537Z,77292.34
2023-05-25T03:58:42.047Z,77306.66
2023-05-25T04:06:19.550Z,77308.69
2023-05-25T04:13:54.784Z,77308.69
2023-05-25T04:21:28.986Z,77296.44
2023-05-25T04:29:04.249Z,77273.97
2023-05-25T04:36:38.617Z,77220.91
2023-05-25T04:44:14.621Z,77178.03
2023-05-25T04:51:48.365Z,77153.53
2023-05-25T04:59:23.592Z,77122.91
2023-05-25T05:06:58.974Z,77075.94
2023-05-25T05:14:34.396Z,77059.63
2023-05-25T05:22:08.752Z,77045.31
2023-05-25T05:29:43.974Z,77024.91
2023-05-25T05:37:17.851Z,77006.53
2023-05-25T05:44:53.144Z,76984.09
2023-05-25T05:52:26.986Z,76957.53
2023-05-25T06:00:03.932Z,76939.16
2023-05-25T06:07:38.428Z,76914.69
2023-05-25T06:15:14.125Z,76879.97
2023-05-25T06:22:47.997Z,76839.16
2023-05-25T06:30:23.496Z,76814.66
2023-05-25T06:37:57.548Z,76784.03
2023-05-25T06:45:32.909Z,76737.06
2023-05-25T06:53:07.040Z,76708.50
2023-05-25T07:00:44.109Z,76663.59
2023-05-25T07:08:18.782Z,76639.09
2023-05-25T07:15:57.564Z,76596.22
2023-05-25T07:23:31.611Z,76571.72
2023-05-25T07:31:07.650Z,76547.25
2023-05-25T07:38:42.286Z,76518.66
2023-05-25T07:46:18.209Z,76488.03
2023-05-25T07:53:54.095Z,76465.59
2023-05-25T08:01:30.197Z,76432.94
2023-05-25T08:09:05.439Z,76408.44
2023-05-25T08:16:40.878Z,76402.31
2023-05-25T08:24:14.731Z,76300.25
2023-05-25T08:31:50.757Z,76292.09
2023-05-25T08:39:24.716Z,76296.19
2023-05-25T08:47:06.830Z,76281.88
2023-05-25T08:54:45.800Z,76183.91
2023-05-25T09:02:30.351Z,76185.97
2023-05-25T09:10:05.424Z,76149.22
2023-05-25T09:17:41.465Z,76102.28
2023-05-25T09:25:20.223Z,76126.78
2023-05-25T09:32:56.077Z,76139.03
2023-05-25T09:40:29.942Z,76112.50
2023-05-25T09:48:07.367Z,76110.44
2023-05-25T09:55:52.046Z,76032.88
2023-05-25T10:03:29.447Z,76143.09
2023-05-25T10:11:04.666Z,76118.59
2023-05-25T10:18:45.024Z,76079.81
2023-05-25T10:26:21.408Z,76106.38
2023-05-25T10:33:57.064Z,76114.53
2023-05-25T10:41:30.922Z,76114.53
2023-05-25T10:49:06.219Z,76134.94
2023-05-25T10:56:40.033Z,76124.72
2023-05-25T11:04:18.447Z,76085.94
2023-05-25T11:12:06.542Z,76120.66
2023-05-25T11:19:43.811Z,76071.66
2023-05-25T11:27:23.441Z,76063.50
2023-05-25T11:34:59.419Z,76043.09
2023-05-25T11:42:33.684Z,76057.38
2023-05-25T11:50:16.078Z,76043.09
2023-05-25T11:57:57.940Z,76051.25
2023-05-25T12:05:39.853Z,76077.78
2023-05-25T12:13:14.662Z,76098.19
2023-05-25T12:20:50.263Z,76043.09
2023-05-25T12:28:24.141Z,76069.63
2023-05-25T12:35:59.294Z,76081.88
2023-05-25T12:43:38.760Z,76043.09
2023-05-25T12:51:14.002Z,76069.63
2023-05-25T12:58:47.825Z,76051.25
2023-05-25T13:06:22.996Z,76069.63
2023-05-25T13:13:56.873Z,76036.97
2023-05-25T13:21:32.855Z,76043.09
2023-05-25T13:29:06.575Z,76006.34
2023-05-25T13:36:41.923Z,75985.94
2023-05-25T13:44:17.432Z,75939.00
2023-05-25T13:51:53.015Z,75914.53
2023-05-25T13:59:27.667Z,75875.75
2023-05-25T14:07:02.984Z,75826.75
2023-05-25T14:14:36.755Z,75792.06
2023-05-25T14:22:14.425Z,75712.47
2023-05-25T14:29:48.666Z,75710.44
2023-05-25T14:37:23.772Z,75806.34
2023-05-25T14:44:57.925Z,75794.13
2023-05-25T14:52:34.494Z,75728.81
2023-05-25T15:00:09.857Z,75736.97
2023-05-25T15:07:45.471Z,75694.13
2023-05-25T15:15:19.427Z,75620.66
2023-05-25T15:22:54.864Z,75594.13
2023-05-25T15:30:28.749Z,75636.97
2023-05-25T15:38:03.979Z,75612.50
2023-05-25T15:45:38.236Z,75669.63
2023-05-25T15:53:13.478Z,75612.50
2023-05-25T16:00:47.323Z,75659.44
2023-05-25T16:08:22.814Z,75571.69
2023-05-25T16:15:56.715Z,75571.69
2023-05-25T16:23:32.086Z,75600.25
2023-05-25T16:31:06.706Z,75579.84
2023-05-25T16:38:42.127Z,75614.53
2023-05-25T16:46:16.107Z,75626.78
2023-05-25T16:53:53.120Z,75618.59
2023-05-25T17:01:27.653Z,75657.38
2023-05-25T17:09:02.850Z,75708.41
2023-05-25T17:16:36.745Z,75739.00
2023-05-25T17:24:12.064Z,75783.91
2023-05-25T17:31:48.480Z,75808.41
2023-05-25T17:39:24.143Z,75851.25
2023-05-25T17:46:57.970Z,75896.16
2023-05-25T17:54:33.143Z,75936.97
2023-05-25T18:02:07.305Z,75955.34
2023-05-25T18:09:42.658Z,76008.41
2023-05-25T18:17:16.571Z,76020.66
2023-05-25T18:24:51.820Z,76053.28
2023-05-25T18:32:25.719Z,76055.34
2023-05-25T18:40:01.669Z,76083.91
2023-05-25T18:47:35.981Z,76106.38
2023-05-25T18:55:11.631Z,76118.59
2023-05-25T19:02:46.200Z,76157.38
2023-05-25T19:10:21.565Z,76169.63
2023-05-25T19:17:57.983Z,76188.00
2023-05-25T19:25:33.338Z,76210.44
2023-05-25T19:33:07.225Z,76228.81
2023-05-25T19:40:42.566Z,76243.09
2023-05-25T19:48:16.417Z,76261.47
2023-05-25T20:04:41.465Z,76328.84
2023-05-25T20:12:16.360Z,76359.44
2023-05-25T20:19:51.722Z,76388.03
2023-05-25T20:27:25.835Z,76414.56
2023-05-25T20:35:01.224Z,76434.97
2023-05-25T20:42:34.975Z,76455.38
2023-05-25T20:50:10.564Z,76465.59
2023-05-25T20:57:44.379Z,76475.78
2023-05-25T21:05:19.651Z,76488.03
2023-05-25T21:12:53.611Z,76512.53
2023-05-25T21:20:28.973Z,76541.13
2023-05-25T21:28:02.789Z,76561.53
2023-05-25T21:35:38.013Z,76579.91
2023-05-25T21:43:11.848Z,76596.22
2023-05-25T21:50:47.158Z,76614.59
2023-05-25T21:58:21.261Z,76637.06
2023-05-25T22:05:56.482Z,76651.34
2023-05-25T22:13:30.257Z,76673.78
2023-05-25T22:21:05.728Z,76679.91
2023-05-25T22:28:39.520Z,76694.22
2023-05-25T22:36:16.308Z,76714.63
2023-05-25T22:43:50.147Z,76722.78
2023-05-25T22:51:25.550Z,76743.19
2023-05-25T22:58:59.589Z,76763.63
2023-05-25T23:06:34.889Z,76786.06
2023-05-25T23:14:10.707Z,76788.09
2023-05-25T23:21:46.004Z,76792.19
2023-05-25T23:29:19.843Z,76798.31
2023-05-25T23:36:55.086Z,76816.69
2023-05-25T23:44:29.021Z,76835.06
2023-05-25T23:52:04.439Z,76859.56
2023-05-25T23:59:38.302Z,76877.94
